createdAt,value
2018-08-04T00:01:30.944Z,99.90
2018-08-04T00:03:59.027Z,99.90
2018-08-04T00:06:27.236Z,99.90
2018-08-04T00:08:55.877Z,99.90
2018-08-04T00:11:24.236Z,99.90
2018-08-04T00:14:26.332Z,99.90
2018-08-04T00:16:54.653Z,99.90
2018-08-04T00:19:22.951Z,99.90
2018-08-04T00:21:50.976Z,99.90
2018-08-04T00:24:19.227Z,99.90
2018-08-04T00:26:50.283Z,99.90
2018-08-04T00:29:18.974Z,99.90
2018-08-04T00:31:46.907Z,99.90
2018-08-04T00:34:14.956Z,99.90
2018-08-04T00:36:43.783Z,99.90
2018-08-04T00:39:12.452Z,99.90
2018-08-04T00:41:40.470Z,99.90
2018-08-04T00:44:08.476Z,99.90
2018-08-04T00:46:36.666Z,99.90
2018-08-04T00:49:04.760Z,99.90
2018-08-04T00:51:33.829Z,99.90
2018-08-04T00:54:01.800Z,99.90
2018-08-04T00:56:29.901Z,99.90
2018-08-04T00:58:57.906Z,99.90
2018-08-04T01:01:26.029Z,99.90
2018-08-04T01:03:54.037Z,99.90
2018-08-04T01:06:22.217Z,99.90
2018-08-04T01:08:50.334Z,99.90
2018-08-04T01:11:18.420Z,99.90
2018-08-04T01:13:47.754Z,99.90
2018-08-04T01:16:15.799Z,99.90
2018-08-04T01:18:43.789Z,99.90
2018-08-04T01:21:11.889Z,99.90
2018-08-04T01:23:39.854Z,99.90
2018-08-04T01:26:07.857Z,99.90
2018-08-04T01:28:37.080Z,99.90
2018-08-04T01:31:05.792Z,99.90
2018-08-04T01:33:34.744Z,99.90
2018-08-04T01:36:02.726Z,99.90
2018-08-04T01:38:32.536Z,99.90
2018-08-04T01:41:00.652Z,99.90
2018-08-04T01:43:29.879Z,99.90
2018-08-04T01:45:58.605Z,99.90
2018-08-04T01:48:26.840Z,99.90
2018-08-04T01:50:55.156Z,99.90
2018-08-04T01:53:23.412Z,99.90
2018-08-04T01:55:52.808Z,99.90
2018-08-04T01:58:20.892Z,99.90
2018-08-04T02:00:49.229Z,99.90
2018-08-04T02:03:17.224Z,99.90
2018-08-04T02:05:45.357Z,99.90
2018-08-04T02:08:13.759Z,99.90
2018-08-04T02:10:43.692Z,99.90
2018-08-04T02:13:11.866Z,99.90
2018-08-04T02:15:41.635Z,99.90
2018-08-04T02:18:10.680Z,99.90
2018-08-04T02:20:38.780Z,99.90
2018-08-04T02:23:07.628Z,99.90
2018-08-04T02:25:35.660Z,99.90
2018-08-04T02:28:04.013Z,99.90
2018-08-04T02:30:32.326Z,99.90
2018-08-04T02:33:04.410Z,99.90
2018-08-04T02:35:35.618Z,99.90
2018-08-04T02:38:04.023Z,99.90
2018-08-04T02:40:35.386Z,99.90
2018-08-04T02:43:03.390Z,99.90
2018-08-04T02:45:31.408Z,99.90
2018-08-04T02:47:59.466Z,99.90
2018-08-04T02:50:27.404Z,99.90
2018-08-04T02:52:56.889Z,99.90
2018-08-04T02:55:25.224Z,99.90
2018-08-04T02:57:53.309Z,99.90
2018-08-04T03:00:21.485Z,99.90
2018-08-04T03:02:49.542Z,99.90
2018-08-04T03:05:17.727Z,99.90
2018-08-04T03:07:45.745Z,99.90
2018-08-04T03:10:13.759Z,99.90
2018-08-04T03:12:41.720Z,99.90
2018-08-04T03:15:10.024Z,99.90
2018-08-04T03:17:38.106Z,99.90
2018-08-04T03:20:07.032Z,99.90
2018-08-04T03:22:35.641Z,99.90
2018-08-04T03:25:04.588Z,99.90
2018-08-04T03:30:00.676Z,99.90
2018-08-04T03:32:28.852Z,99.90
2018-08-04T03:34:57.840Z,99.90
2018-08-04T03:37:26.011Z,99.90
2018-08-04T03:39:54.040Z,99.90
2018-08-04T03:42:30.516Z,99.90
2018-08-04T03:44:58.723Z,99.90
2018-08-04T03:47:26.851Z,99.90
2018-08-04T03:49:54.929Z,99.90
2018-08-04T03:52:23.001Z,99.90
2018-08-04T03:54:51.372Z,99.90
2018-08-04T03:57:20.711Z,99.90
2018-08-04T03:59:48.972Z,99.90
2018-08-04T04:02:18.323Z,99.90
2018-08-04T04:04:46.496Z,99.90
2018-08-04T04:07:14.608Z,99.90
2018-08-04T04:12:11.518Z,99.90
2018-08-04T04:14:40.646Z,99.90
2018-08-04T04:17:08.683Z,99.90
2018-08-04T04:19:36.773Z,99.90
2018-08-04T04:22:04.855Z,99.90
2018-08-04T04:24:33.101Z,99.90
2018-08-04T04:27:01.142Z,99.90
2018-08-04T04:29:30.889Z,99.90
2018-08-04T04:31:58.931Z,99.90
2018-08-04T04:34:27.233Z,99.90
2018-08-04T04:36:55.370Z,99.90
2018-08-04T04:39:23.543Z,99.90
2018-08-04T04:41:51.593Z,99.90
2018-08-04T04:44:20.876Z,99.90
2018-08-04T04:46:49.313Z,99.90
2018-08-04T04:49:17.312Z,99.90
2018-08-04T04:51:45.350Z,99.90
2018-08-04T04:54:13.460Z,99.90
2018-08-04T04:56:41.452Z,99.90
2018-08-04T04:59:09.449Z,99.90
2018-08-04T05:01:37.654Z,99.90
2018-08-04T05:04:05.906Z,99.90
2018-08-04T05:06:34.580Z,99.90
2018-08-04T05:09:03.429Z,99.90
2018-08-04T05:11:31.597Z,99.90
2018-08-04T05:16:36.453Z,99.90
2018-08-04T05:19:04.961Z,99.90
2018-08-04T05:21:33.150Z,99.90
2018-08-04T05:24:02.493Z,99.90
2018-08-04T05:26:31.534Z,99.90
2018-08-04T05:28:59.993Z,99.90
2018-08-04T05:31:28.633Z,99.90
2018-08-04T05:33:56.892Z,99.90
2018-08-04T05:36:25.661Z,99.90
2018-08-04T05:38:53.907Z,99.90
2018-08-04T05:41:21.936Z,99.90
2018-08-04T05:43:50.040Z,99.90
2018-08-04T05:46:24.203Z,99.90
2018-08-04T05:48:54.634Z,99.90
2018-08-04T05:51:22.648Z,99.90
2018-08-04T05:53:50.740Z,99.90
2018-08-04T05:56:19.600Z,99.90
2018-08-04T05:58:47.569Z,99.90
2018-08-04T06:01:17.125Z,99.90
2018-08-04T06:03:46.016Z,99.90
2018-08-04T06:06:14.600Z,99.90
2018-08-04T06:08:42.867Z,99.90
2018-08-04T06:11:11.111Z,99.90
2018-08-04T06:13:39.260Z,99.90
2018-08-04T06:16:08.329Z,99.90
2018-08-04T06:18:36.963Z,99.90
2018-08-04T06:21:05.161Z,99.90
2018-08-04T06:23:33.569Z,99.90
2018-08-04T06:26:01.799Z,99.90
2018-08-04T06:28:30.115Z,99.90
2018-08-04T06:30:58.292Z,99.90
2018-08-04T06:33:26.364Z,99.90
2018-08-04T06:35:55.952Z,99.90
2018-08-04T06:38:24.224Z,99.90
2018-08-04T06:40:52.320Z,99.90
2018-08-04T06:43:20.408Z,99.90
2018-08-04T06:45:48.538Z,99.90
2018-08-04T06:48:16.586Z,99.90
2018-08-04T06:50:44.779Z,99.90
2018-08-04T06:53:12.720Z,99.90
2018-08-04T06:55:41.099Z,99.90
2018-08-04T06:58:09.157Z,99.90
2018-08-04T07:00:37.812Z,99.90
2018-08-04T07:03:05.955Z,99.90
2018-08-04T07:05:34.007Z,99.90
2018-08-04T07:08:02.838Z,99.90
2018-08-04T07:10:31.329Z,99.90
2018-08-04T07:12:59.375Z,98.20
2018-08-04T07:15:27.380Z,97.90
2018-08-04T07:17:56.304Z,97.80
2018-08-04T07:20:25.224Z,97.50
2018-08-04T07:22:56.989Z,95.50
2018-08-04T07:25:25.000Z,95.00
2018-08-04T07:27:53.093Z,94.20
2018-08-04T07:30:21.239Z,94.90
2018-08-04T07:32:50.904Z,95.00
2018-08-04T07:35:18.963Z,94.70
2018-08-04T07:37:47.704Z,94.50
2018-08-04T07:40:16.722Z,93.20
2018-08-04T07:42:44.836Z,92.20
2018-08-04T07:45:14.865Z,91.60
2018-08-04T07:47:42.911Z,90.30
2018-08-04T07:50:11.836Z,89.50
2018-08-04T07:52:39.920Z,88.90
2018-08-04T07:55:08.616Z,88.30
2018-08-04T07:57:36.736Z,88.70
2018-08-04T08:00:06.852Z,86.70
2018-08-04T08:02:35.533Z,85.80
2018-08-04T08:05:04.964Z,84.40
2018-08-04T08:07:33.118Z,82.70
2018-08-04T08:10:05.570Z,84.00
2018-08-04T08:12:33.630Z,83.80
2018-08-04T08:15:01.855Z,84.70
2018-08-04T08:17:30.037Z,83.80
2018-08-04T08:19:59.677Z,83.90
2018-08-04T08:22:43.136Z,82.50
2018-08-04T08:25:11.213Z,81.30
2018-08-04T08:27:39.703Z,83.30
2018-08-04T08:30:12.352Z,82.40
2018-08-04T08:32:41.387Z,86.90
2018-08-04T08:35:24.081Z,87.20
2018-08-04T08:37:53.920Z,89.40
2018-08-04T08:40:22.057Z,90.50
2018-08-04T08:42:50.175Z,91.10
2018-08-04T08:45:18.168Z,91.00
2018-08-04T08:47:47.029Z,91.20
2018-08-04T08:50:21.060Z,91.50
2018-08-04T08:52:50.392Z,91.70
2018-08-04T08:55:18.528Z,90.30
2018-08-04T08:57:46.649Z,86.90
2018-08-04T09:00:14.763Z,86.00
2018-08-04T09:02:42.841Z,84.90
2018-08-04T09:05:11.708Z,82.30
2018-08-04T09:07:40.008Z,84.50
2018-08-04T09:10:12.337Z,84.50
2018-08-04T09:12:40.773Z,82.50
2018-08-04T09:15:10.641Z,83.00
2018-08-04T09:17:40.372Z,80.80
2018-08-04T09:25:06.718Z,76.90
2018-08-04T09:27:36.122Z,76.00
2018-08-04T09:30:06.705Z,75.40
2018-08-04T09:32:34.692Z,74.90
2018-08-04T09:35:02.914Z,72.90
2018-08-04T09:37:30.895Z,71.40
2018-08-04T09:39:59.063Z,75.00
2018-08-04T09:42:27.800Z,71.40
2018-08-04T09:44:56.790Z,71.90
2018-08-04T09:47:24.819Z,74.60
2018-08-04T09:49:53.133Z,74.80
2018-08-04T09:52:21.433Z,77.20
2018-08-04T09:54:50.431Z,77.50
2018-08-04T09:57:19.332Z,74.00
2018-08-04T09:59:47.394Z,72.80
2018-08-04T10:02:19.853Z,71.90
2018-08-04T10:04:47.883Z,70.10
2018-08-04T10:07:16.521Z,65.00
2018-08-04T10:09:45.116Z,62.80
2018-08-04T10:12:13.964Z,60.50
2018-08-04T10:14:42.900Z,61.10
2018-08-04T10:17:11.378Z,61.90
2018-08-04T10:19:39.957Z,63.40
2018-08-04T10:22:09.959Z,63.90
2018-08-04T10:24:38.138Z,63.80
2018-08-04T10:27:06.510Z,64.90
2018-08-04T10:29:35.664Z,65.30
2018-08-04T10:32:03.816Z,63.60
2018-08-04T10:34:32.680Z,63.80
2018-08-04T10:37:02.029Z,64.70
2018-08-04T10:39:30.146Z,64.90
2018-08-04T10:41:59.604Z,66.20
2018-08-04T10:44:28.450Z,66.70
2018-08-04T10:46:57.409Z,67.30
2018-08-04T10:49:26.196Z,67.00
2018-08-04T10:51:54.363Z,69.20
2018-08-04T10:54:22.567Z,69.50
2018-08-04T10:56:52.949Z,68.60
2018-08-04T10:59:20.922Z,68.50
2018-08-04T11:01:52.151Z,68.50
2018-08-04T11:04:20.361Z,68.80
2018-08-04T11:07:03.769Z,68.70
2018-08-04T11:09:32.513Z,68.70
2018-08-04T11:12:03.242Z,68.60
2018-08-04T11:14:31.278Z,68.90
2018-08-04T11:17:02.411Z,68.90
2018-08-04T11:19:30.482Z,68.90
2018-08-04T11:21:58.752Z,66.70
2018-08-04T11:24:28.079Z,64.60
2018-08-04T11:26:56.866Z,64.60
2018-08-04T11:29:25.890Z,64.30
2018-08-04T11:31:58.614Z,64.60
2018-08-04T11:34:28.512Z,65.40
2018-08-04T11:37:05.586Z,65.20
2018-08-04T11:39:39.275Z,64.20
2018-08-04T11:42:08.796Z,64.00
2018-08-04T11:44:37.012Z,63.80
2018-08-04T11:47:06.235Z,64.20
2018-08-04T11:49:40.071Z,63.70
2018-08-04T11:52:09.544Z,63.10
2018-08-04T11:54:37.684Z,63.70
2018-08-04T11:57:06.716Z,62.60
2018-08-04T11:59:37.032Z,61.80
2018-08-04T12:02:05.428Z,60.20
2018-08-04T12:04:33.383Z,60.40
2018-08-04T12:07:01.470Z,66.50
2018-08-04T12:09:29.537Z,67.20
2018-08-04T12:11:57.865Z,67.50
2018-08-04T12:14:28.334Z,67.50
2018-08-04T12:16:57.147Z,68.20
2018-08-04T12:19:25.199Z,69.70
2018-08-04T12:21:55.614Z,70.10
2018-08-04T12:24:23.630Z,70.20
2018-08-04T12:26:51.613Z,70.70
2018-08-04T12:29:19.653Z,71.00
2018-08-04T12:31:47.704Z,70.70
2018-08-04T12:34:15.682Z,70.30
2018-08-04T12:36:44.176Z,68.70
2018-08-04T12:39:12.441Z,67.80
2018-08-04T12:41:41.397Z,67.20
2018-08-04T12:44:11.059Z,66.80
2018-08-04T12:46:39.421Z,66.50
2018-08-04T12:49:12.935Z,66.20
2018-08-04T12:51:50.459Z,66.20
2018-08-04T12:54:33.537Z,66.90
2018-08-04T12:57:06.883Z,67.00
2018-08-04T12:59:36.022Z,67.50
2018-08-04T13:02:05.187Z,67.40
2018-08-04T13:04:33.807Z,67.20
2018-08-04T13:07:01.816Z,66.80
2018-08-04T13:09:30.694Z,66.80
2018-08-04T13:11:58.698Z,66.30
2018-08-04T13:14:26.967Z,66.10
2018-08-04T13:16:55.705Z,65.60
2018-08-04T13:19:23.704Z,66.40
2018-08-04T13:21:52.368Z,66.50
2018-08-04T13:24:22.388Z,66.40
2018-08-04T13:26:50.379Z,66.60
2018-08-04T13:29:18.611Z,66.90
2018-08-04T13:31:49.550Z,66.80
2018-08-04T13:34:18.209Z,67.30
2018-08-04T13:36:46.736Z,66.40
2018-08-04T13:39:15.549Z,67.30
2018-08-04T13:41:44.412Z,67.60
2018-08-04T13:44:13.055Z,67.60
2018-08-04T13:46:41.062Z,67.20
2018-08-04T13:49:10.610Z,67.20
2018-08-04T13:51:40.607Z,67.70
2018-08-04T13:54:09.472Z,67.80
2018-08-04T13:56:37.712Z,67.90
2018-08-04T13:59:05.886Z,67.80
2018-08-04T14:01:33.846Z,67.90
2018-08-04T14:04:03.251Z,66.70
2018-08-04T14:06:32.880Z,66.80
2018-08-04T14:09:00.945Z,66.50
2018-08-04T14:11:29.000Z,67.00
2018-08-04T14:13:57.071Z,66.90
2018-08-04T14:16:25.649Z,66.10
2018-08-04T14:18:53.891Z,66.20
2018-08-04T14:21:24.155Z,65.30
2018-08-04T14:23:53.698Z,66.20
2018-08-04T14:26:22.515Z,65.10
2018-08-04T14:28:50.531Z,64.80
2018-08-04T14:33:47.694Z,65.70
2018-08-04T14:36:15.784Z,65.00
2018-08-04T14:38:43.758Z,66.10
2018-08-04T14:41:12.252Z,66.90
2018-08-04T14:43:40.298Z,66.10
2018-08-04T14:46:08.468Z,66.00
2018-08-04T14:48:37.357Z,66.00
2018-08-04T14:51:06.366Z,66.40
2018-08-04T14:53:35.337Z,65.70
2018-08-04T14:56:04.473Z,64.90
2018-08-04T14:58:33.132Z,64.50
2018-08-04T15:01:02.293Z,64.70
2018-08-04T15:03:30.996Z,65.20
2018-08-04T15:06:01.766Z,65.20
2018-08-04T15:08:33.724Z,65.20
2018-08-04T15:11:01.864Z,65.00
2018-08-04T15:13:32.153Z,65.20
2018-08-04T15:16:00.883Z,65.10
2018-08-04T15:18:30.494Z,65.20
2018-08-04T15:20:58.838Z,65.50
2018-08-04T15:23:28.506Z,65.20
2018-08-04T15:25:56.978Z,65.40
2018-08-04T15:28:25.151Z,65.90
2018-08-04T15:30:53.330Z,65.60
2018-08-04T15:33:21.324Z,64.80
2018-08-04T15:35:51.073Z,64.60
2018-08-04T15:38:20.694Z,64.70
2018-08-04T15:40:49.620Z,64.50
2018-08-04T15:43:19.757Z,64.60
2018-08-04T15:45:48.220Z,64.30
2018-08-04T15:48:17.368Z,64.40
2018-08-04T15:50:45.501Z,64.50
2018-08-04T15:53:13.546Z,64.70
2018-08-04T15:55:41.679Z,64.90
2018-08-04T15:58:09.778Z,64.40
2018-08-04T16:00:40.056Z,64.80
2018-08-04T16:03:09.996Z,64.70
2018-08-04T16:05:39.364Z,64.70
2018-08-04T16:08:08.380Z,64.40
2018-08-04T16:10:36.467Z,64.40
2018-08-04T16:13:04.666Z,64.10
2018-08-04T16:15:36.012Z,63.60
2018-08-04T16:18:05.016Z,63.70
2018-08-04T16:20:33.647Z,63.60
2018-08-04T16:27:38.104Z,64.30
2018-08-04T16:30:07.356Z,65.00
2018-08-04T16:32:35.440Z,64.70
2018-08-04T16:35:04.318Z,64.10
2018-08-04T16:37:33.154Z,63.40
2018-08-04T16:40:01.965Z,63.60
2018-08-04T16:42:30.052Z,63.80
2018-08-04T16:44:58.729Z,64.10
2018-08-04T16:47:26.986Z,64.00
2018-08-04T16:49:56.344Z,63.90
2018-08-04T16:52:24.476Z,64.00
2018-08-04T16:54:53.331Z,62.80
2018-08-04T16:57:22.400Z,63.20
2018-08-04T16:59:50.496Z,64.50
2018-08-04T17:02:18.974Z,65.10
2018-08-04T17:04:47.004Z,64.20
2018-08-04T17:07:22.452Z,64.70
2018-08-04T17:09:52.211Z,64.00
2018-08-04T17:12:26.357Z,64.00
2018-08-04T17:17:34.976Z,64.40
2018-08-04T17:20:03.937Z,64.80
2018-08-04T17:22:34.181Z,64.70
2018-08-04T17:25:04.540Z,64.80
2018-08-04T17:27:32.717Z,64.70
2018-08-04T17:30:03.397Z,64.80
2018-08-04T17:32:31.866Z,66.20
2018-08-04T17:35:02.958Z,66.80
2018-08-04T17:37:31.026Z,67.00
2018-08-04T17:39:59.595Z,67.30
2018-08-04T17:42:27.737Z,67.30
2018-08-04T17:44:55.804Z,67.80
2018-08-04T17:47:24.437Z,68.00
2018-08-04T17:49:53.320Z,68.30
2018-08-04T17:52:22.352Z,68.30
2018-08-04T17:54:52.371Z,68.50
2018-08-04T17:57:21.037Z,68.90
2018-08-04T17:59:50.312Z,68.80
2018-08-04T18:02:20.403Z,69.00
2018-08-04T18:04:49.496Z,69.40
2018-08-04T18:07:19.463Z,69.70
2018-08-04T18:09:48.521Z,70.20
2018-08-04T18:12:19.738Z,70.60
2018-08-04T18:14:49.462Z,71.00
2018-08-04T18:17:18.592Z,71.10
2018-08-04T18:19:48.095Z,71.50
2018-08-04T18:22:20.944Z,71.80
2018-08-04T18:24:49.964Z,72.00
2018-08-04T18:27:18.409Z,72.20
2018-08-04T18:29:49.461Z,72.60
2018-08-04T18:32:19.533Z,72.30
2018-08-04T18:34:48.893Z,73.00
2018-08-04T18:37:17.116Z,73.00
2018-08-04T18:39:47.084Z,73.30
2018-08-04T18:42:17.844Z,73.70
2018-08-04T18:44:46.734Z,73.70
2018-08-04T18:47:14.831Z,74.00
2018-08-04T18:49:43.659Z,74.30
2018-08-04T18:52:16.142Z,74.40
2018-08-04T18:57:18.485Z,74.80
2018-08-04T18:59:53.373Z,75.10
2018-08-04T19:02:25.923Z,75.40
2018-08-04T19:04:57.880Z,75.70
2018-08-04T19:07:25.984Z,75.80
2018-08-04T19:09:54.905Z,75.80
2018-08-04T19:12:25.729Z,76.30
2018-08-04T19:14:53.686Z,76.30
2018-08-04T19:17:24.820Z,76.40
2018-08-04T19:19:53.740Z,76.50
2018-08-04T19:22:23.171Z,76.40
2018-08-04T19:24:54.926Z,76.20
2018-08-04T19:27:23.135Z,76.40
2018-08-04T19:29:52.237Z,76.30
2018-08-04T19:32:21.609Z,76.10
2018-08-04T19:34:50.532Z,76.00
2018-08-04T19:37:18.652Z,76.00
2018-08-04T19:39:47.776Z,75.40
2018-08-04T19:42:15.830Z,75.60
2018-08-04T19:44:46.028Z,75.80
2018-08-04T19:47:15.258Z,75.30
2018-08-04T19:49:43.316Z,75.40
2018-08-04T19:52:12.019Z,75.10
2018-08-04T19:54:41.609Z,75.00
2018-08-04T19:57:12.327Z,75.20
2018-08-04T20:00:12.137Z,75.00
2018-08-04T20:02:41.983Z,74.90
2018-08-04T20:05:10.704Z,74.90
2018-08-04T20:07:39.795Z,74.70
2018-08-04T20:10:07.810Z,75.30
2018-08-04T20:12:36.433Z,74.50
2018-08-04T20:15:04.716Z,74.00
2018-08-04T20:17:32.804Z,74.20
2018-08-04T20:20:01.832Z,74.20
2018-08-04T20:22:29.972Z,74.60
2018-08-04T20:24:58.079Z,74.60
2018-08-04T20:27:26.949Z,74.50
2018-08-04T20:29:55.545Z,74.50
2018-08-04T20:32:24.410Z,74.80
2018-08-04T20:34:56.950Z,74.60
2018-08-04T20:37:25.092Z,74.70
2018-08-04T20:39:53.362Z,74.40
2018-08-04T20:42:22.762Z,74.70
2018-08-04T20:44:51.668Z,74.40
2018-08-04T20:47:32.313Z,74.60
2018-08-04T20:50:02.100Z,74.30
2018-08-04T20:52:30.352Z,74.70
2018-08-04T20:54:59.278Z,75.00
2018-08-04T20:57:28.021Z,75.00
2018-08-04T20:59:56.264Z,75.50
2018-08-04T21:02:25.864Z,75.90
2018-08-04T21:04:54.031Z,76.00
2018-08-04T21:07:22.168Z,76.30
2018-08-04T21:09:50.379Z,76.40
2018-08-04T21:12:20.093Z,76.70
2018-08-04T21:14:49.491Z,76.90
2018-08-04T21:17:18.385Z,77.10
2018-08-04T21:19:46.408Z,77.40
2018-08-04T21:22:14.518Z,77.70
2018-08-04T21:24:42.615Z,78.10
2018-08-04T21:27:13.697Z,78.20
2018-08-04T21:29:41.651Z,78.20
2018-08-04T21:32:09.619Z,79.00
2018-08-04T21:34:37.673Z,78.90
2018-08-04T21:37:05.723Z,79.50
2018-08-04T21:39:34.020Z,79.50
2018-08-04T21:42:02.716Z,80.00
2018-08-04T21:44:30.768Z,80.10
2018-08-04T21:47:00.756Z,80.50
2018-08-04T21:49:29.802Z,80.80
2018-08-04T21:51:58.843Z,80.80
2018-08-04T21:54:26.789Z,80.90
2018-08-04T21:56:54.734Z,81.10
2018-08-04T21:59:22.720Z,81.40
2018-08-04T22:01:54.844Z,81.70
2018-08-04T22:04:23.707Z,81.70
2018-08-04T22:08:07.015Z,81.90
2018-08-04T22:10:36.300Z,82.50
2018-08-04T22:13:04.766Z,82.80
2018-08-04T22:15:32.739Z,83.20
2018-08-04T22:18:01.796Z,83.20
2018-08-04T22:20:32.320Z,83.70
2018-08-04T22:23:00.548Z,84.00
2018-08-04T22:25:29.581Z,84.30
2018-08-04T22:27:58.177Z,84.80
2018-08-04T22:30:26.536Z,85.50
2018-08-04T22:32:54.720Z,85.70
2018-08-04T22:35:23.703Z,86.50
2018-08-04T22:37:51.748Z,86.90
2018-08-04T22:40:20.494Z,87.50
2018-08-04T22:42:49.558Z,87.70
2018-08-04T22:46:12.830Z,87.80
2018-08-04T22:48:42.830Z,87.50
2018-08-04T22:51:11.595Z,87.50
2018-08-04T22:53:41.427Z,87.60
2018-08-04T22:56:09.498Z,88.00
2018-08-04T22:58:37.451Z,88.30
2018-08-04T23:01:06.384Z,88.60
2018-08-04T23:03:35.964Z,89.20
2018-08-04T23:06:04.077Z,89.80
2018-08-04T23:08:32.151Z,90.20
2018-08-04T23:11:01.090Z,90.20
2018-08-04T23:13:29.728Z,90.60
2018-08-04T23:15:58.582Z,90.70
2018-08-04T23:18:27.587Z,91.00
2018-08-04T23:20:55.552Z,91.40
2018-08-04T23:23:23.603Z,91.30
2018-08-04T23:25:51.729Z,91.60
2018-08-04T23:28:19.644Z,91.60
2018-08-04T23:30:47.593Z,91.70
2018-08-04T23:33:16.967Z,91.90
2018-08-04T23:35:45.370Z,91.80
2018-08-04T23:38:13.376Z,91.90
2018-08-04T23:40:41.355Z,92.10
2018-08-04T23:43:09.728Z,92.10
2018-08-04T23:45:38.908Z,92.60
2018-08-04T23:48:06.888Z,93.00
2018-08-04T23:50:35.604Z,93.10
2018-08-04T23:53:03.608Z,93.70
2018-08-04T23:55:32.499Z,94.10
2018-08-04T23:58:00.482Z,94.10
